sensor_id;sensor_type;location;lat;lon;timestamp;pressure;altitude;pressure_sealevel;temperature;humidity
57847;BME280;43675;50.030;21.952;2022-08-20T00:00:37;98311.49;;;20.96;64.60
57847;BME280;43675;50.030;21.952;2022-08-20T00:03:13;98312.36;;;20.92;64.84
57847;BME280;43675;50.030;21.952;2022-08-20T00:05:42;98313.77;;;20.89;65.10
57847;BME280;43675;50.030;21.952;2022-08-20T00:08:14;98321.41;;;20.87;65.26
57847;BME280;43675;50.030;21.952;2022-08-20T00:10:42;98329.08;;;20.85;65.41
57847;BME280;43675;50.030;21.952;2022-08-20T00:13:11;98328.31;;;20.80;65.31
57847;BME280;43675;50.030;21.952;2022-08-20T00:15:38;98334.93;;;20.73;65.44
57847;BME280;43675;50.030;21.952;2022-08-20T00:18:10;98333.06;;;20.66;65.62
57847;BME280;43675;50.030;21.952;2022-08-20T00:20:39;98334.50;;;20.59;65.91
57847;BME280;43675;50.030;21.952;2022-08-20T00:23:12;98340.03;;;20.51;66.17
57847;BME280;43675;50.030;21.952;2022-08-20T00:25:38;98346.10;;;20.43;66.30
57847;BME280;43675;50.030;21.952;2022-08-20T00:28:04;98345.35;;;20.38;66.61
57847;BME280;43675;50.030;21.952;2022-08-20T00:30:30;98344.56;;;20.32;66.73
57847;BME280;43675;50.030;21.952;2022-08-20T00:33:03;98343.51;;;20.25;66.87
57847;BME280;43675;50.030;21.952;2022-08-20T00:35:28;98343.27;;;20.19;66.95
57847;BME280;43675;50.030;21.952;2022-08-20T00:37:54;98347.17;;;20.11;67.16
57847;BME280;43675;50.030;21.952;2022-08-20T00:40:27;98351.05;;;20.02;67.41
57847;BME280;43675;50.030;21.952;2022-08-20T00:42:55;98349.19;;;19.95;67.62
57847;BME280;43675;50.030;21.952;2022-08-20T00:45:23;98344.89;;;19.87;67.81
57847;BME280;43675;50.030;21.952;2022-08-20T00:47:49;98353.08;;;19.81;68.07
57847;BME280;43675;50.030;21.952;2022-08-20T00:50:19;98353.67;;;19.73;68.42
57847;BME280;43675;50.030;21.952;2022-08-20T00:52:47;98346.07;;;19.70;68.78
57847;BME280;43675;50.030;21.952;2022-08-20T00:55:15;98337.95;;;19.63;69.01
57847;BME280;43675;50.030;21.952;2022-08-20T00:57:47;98326.04;;;19.51;69.02
57847;BME280;43675;50.030;21.952;2022-08-20T01:00:20;98326.04;;;19.51;69.02
57847;BME280;43675;50.030;21.952;2022-08-20T01:02:46;98332.30;;;19.52;69.34
57847;BME280;43675;50.030;21.952;2022-08-20T01:05:12;98325.24;;;19.46;69.48
57847;BME280;43675;50.030;21.952;2022-08-20T01:07:38;98314.38;;;19.41;69.72
57847;BME280;43675;50.030;21.952;2022-08-20T01:10:08;98307.31;;;19.34;69.88
57847;BME280;43675;50.030;21.952;2022-08-20T01:12:33;98306.23;;;19.30;70.00
57847;BME280;43675;50.030;21.952;2022-08-20T01:15:01;98305.98;;;19.27;70.31
57847;BME280;43675;50.030;21.952;2022-08-20T01:17:35;98305.20;;;19.24;70.65
57847;BME280;43675;50.030;21.952;2022-08-20T01:20:16;98312.56;;;19.21;70.68
57847;BME280;43675;50.030;21.952;2022-08-20T01:25:36;98307.96;;;19.11;70.74
57847;BME280;43675;50.030;21.952;2022-08-20T01:27:56;98302.53;;;19.06;70.88
57847;BME280;43675;50.030;21.952;2022-08-20T01:30:25;98299.04;;;19.01;71.07
57847;BME280;43675;50.030;21.952;2022-08-20T01:32:51;98300.40;;;19.01;71.28
57847;BME280;43675;50.030;21.952;2022-08-20T01:35:19;98299.84;;;18.99;71.63
57847;BME280;43675;50.030;21.952;2022-08-20T01:37:45;98293.87;;;18.99;71.99
57847;BME280;43675;50.030;21.952;2022-08-20T01:40:13;98292.24;;;19.01;71.99
57847;BME280;43675;50.030;21.952;2022-08-20T01:42:43;98290.88;;;19.01;72.13
57847;BME280;43675;50.030;21.952;2022-08-20T01:45:09;98292.22;;;19.03;72.17
57847;BME280;43675;50.030;21.952;2022-08-20T01:47:35;98289.22;;;19.02;72.16
57847;BME280;43675;50.030;21.952;2022-08-20T01:50:10;98290.88;;;19.01;71.98
57847;BME280;43675;50.030;21.952;2022-08-20T01:55:12;98299.05;;;18.90;71.77
57847;BME280;43675;50.030;21.952;2022-08-20T01:57:38;98313.77;;;18.84;72.12
57847;BME280;43675;50.030;21.952;2022-08-20T02:00:07;98308.06;;;18.83;72.55
57847;BME280;43675;50.030;21.952;2022-08-20T02:02:33;98299.91;;;18.83;72.87
57847;BME280;43675;50.030;21.952;2022-08-20T02:04:59;98302.90;;;18.84;72.90
57847;BME280;43675;50.030;21.952;2022-08-20T02:07:25;98306.98;;;18.84;72.88
57847;BME280;43675;50.030;21.952;2022-08-20T02:09:51;98309.69;;;18.82;72.83
57847;BME280;43675;50.030;21.952;2022-08-20T02:12:17;98313.78;;;18.79;72.88
57847;BME280;43675;50.030;21.952;2022-08-20T02:14:47;98316.52;;;18.77;72.81
57847;BME280;43675;50.030;21.952;2022-08-20T02:17:13;98312.72;;;18.73;72.72
57847;BME280;43675;50.030;21.952;2022-08-20T02:20:05;98314.08;;;18.68;72.85
57847;BME280;43675;50.030;21.952;2022-08-20T02:22:42;98325.77;;;18.63;72.87
57847;BME280;43675;50.030;21.952;2022-08-20T02:25:09;98329.58;;;18.55;72.84
57847;BME280;43675;50.030;21.952;2022-08-20T02:27:38;98333.38;;;18.49;72.92
57847;BME280;43675;50.030;21.952;2022-08-20T02:30:10;98348.61;;;18.42;72.98
57847;BME280;43675;50.030;21.952;2022-08-20T02:32:37;98342.61;;;18.35;73.20
57847;BME280;43675;50.030;21.952;2022-08-20T02:35:05;98342.89;;;18.31;73.57
57847;BME280;43675;50.030;21.952;2022-08-20T02:37:32;98335.56;;;18.29;73.74
57847;BME280;43675;50.030;21.952;2022-08-20T02:39:57;98338.30;;;18.26;73.85
57847;BME280;43675;50.030;21.952;2022-08-20T02:42:23;98340.99;;;18.24;73.89
57847;BME280;43675;50.030;21.952;2022-08-20T02:44:49;98342.35;;;18.24;74.00
57847;BME280;43675;50.030;21.952;2022-08-20T02:47:14;98342.08;;;18.20;74.05
57847;BME280;43675;50.030;21.952;2022-08-20T02:49:40;98338.30;;;18.19;74.15
57847;BME280;43675;50.030;21.952;2022-08-20T02:52:05;98328.23;;;18.17;74.21
57847;BME280;43675;50.030;21.952;2022-08-20T02:54:31;98323.35;;;18.14;74.29
57847;BME280;43675;50.030;21.952;2022-08-20T02:56:57;98315.22;;;18.11;74.36
57847;BME280;43675;50.030;21.952;2022-08-20T02:59:22;98307.59;;;18.08;74.48
57847;BME280;43675;50.030;21.952;2022-08-20T03:01:48;98307.88;;;18.07;74.65
57847;BME280;43675;50.030;21.952;2022-08-20T03:04:14;98308.14;;;18.05;74.72
57847;BME280;43675;50.030;21.952;2022-08-20T03:06:39;98313.56;;;18.05;74.84
57847;BME280;43675;50.030;21.952;2022-08-20T03:09:11;98316.54;;;18.04;74.93
57847;BME280;43675;50.030;21.952;2022-08-20T03:11:43;98316.02;;;18.02;75.03
57847;BME280;43675;50.030;21.952;2022-08-20T03:14:09;98316.81;;;18.00;75.12
57847;BME280;43675;50.030;21.952;2022-08-20T03:16:41;98314.38;;;17.98;75.14
57847;BME280;43675;50.030;21.952;2022-08-20T03:19:07;98312.47;;;17.96;75.25
57847;BME280;43675;50.030;21.952;2022-08-20T03:21:33;98314.64;;;17.96;75.41
57847;BME280;43675;50.030;21.952;2022-08-20T03:24:05;98312.20;;;17.98;75.55
57847;BME280;43675;50.030;21.952;2022-08-20T03:26:31;98308.66;;;18.00;75.82
57847;BME280;43675;50.030;21.952;2022-08-20T03:28:56;98304.61;;;18.02;75.92
57847;BME280;43675;50.030;21.952;2022-08-20T03:31:22;98301.61;;;18.04;75.89
57847;BME280;43675;50.030;21.952;2022-08-20T03:33:48;98299.17;;;18.05;75.84
57847;BME280;43675;50.030;21.952;2022-08-20T03:36:14;98301.89;;;18.05;75.70
57847;BME280;43675;50.030;21.952;2022-08-20T03:38:39;98303.53;;;18.03;75.73
57847;BME280;43675;50.030;21.952;2022-08-20T03:41:05;98304.08;;;18.03;75.89
57847;BME280;43675;50.030;21.952;2022-08-20T03:43:32;98302.72;;;18.03;75.94
57847;BME280;43675;50.030;21.952;2022-08-20T03:45:58;98308.69;;;18.02;75.91
57847;BME280;43675;50.030;21.952;2022-08-20T03:48:24;98313.02;;;18.01;75.95
57847;BME280;43675;50.030;21.952;2022-08-20T03:50:50;98317.63;;;18.00;76.03
57847;BME280;43675;50.030;21.952;2022-08-20T03:53:17;98316.81;;;18.00;76.04
57847;BME280;43675;50.030;21.952;2022-08-20T03:55:45;98316.55;;;18.01;76.07
57847;BME280;43675;50.030;21.952;2022-08-20T03:58:11;98313.30;;;18.02;76.14
57847;BME280;43675;50.030;21.952;2022-08-20T04:00:46;98315.75;;;18.03;76.20
57847;BME280;43675;50.030;21.952;2022-08-20T04:03:13;98312.77;;;18.07;76.29
57847;BME280;43675;50.030;21.952;2022-08-20T04:05:40;98311.68;;;18.11;76.37
57847;BME280;43675;50.030;21.952;2022-08-20T04:08:08;98311.41;;;18.15;76.44
57847;BME280;43675;50.030;21.952;2022-08-20T04:10:36;98313.56;;;18.20;76.48
57847;BME280;43675;50.030;21.952;2022-08-20T04:13:03;98320.89;;;18.27;76.51
57847;BME280;43675;50.030;21.952;2022-08-20T04:15:35;98328.78;;;18.34;76.46
57847;BME280;43675;50.030;21.952;2022-08-20T04:18:07;98331.76;;;18.32;75.64
57847;BME280;43675;50.030;21.952;2022-08-20T04:20:34;98331.76;;;18.32;75.64
57847;BME280;43675;50.030;21.952;2022-08-20T04:23:00;98350.22;;;18.43;75.66
57847;BME280;43675;50.030;21.952;2022-08-20T04:25:33;98348.59;;;18.47;75.53
57847;BME280;43675;50.030;21.952;2022-08-20T04:28:02;98347.25;;;18.50;75.48
57847;BME280;43675;50.030;21.952;2022-08-20T04:30:29;98346.18;;;18.53;75.51
57847;BME280;43675;50.030;21.952;2022-08-20T04:32:55;98349.70;;;18.61;75.55
57847;BME280;43675;50.030;21.952;2022-08-20T04:35:21;98349.97;;;18.70;75.48
57847;BME280;43675;50.030;21.952;2022-08-20T04:37:47;98351.56;;;18.78;75.28
57847;BME280;43675;50.030;21.952;2022-08-20T04:40:16;98352.66;;;18.85;75.06
57847;BME280;43675;50.030;21.952;2022-08-20T04:42:42;98346.37;;;18.92;74.91
57847;BME280;43675;50.030;21.952;2022-08-20T04:45:08;98348.53;;;19.00;74.77
57847;BME280;43675;50.030;21.952;2022-08-20T04:47:34;98349.56;;;19.09;74.73
57847;BME280;43675;50.030;21.952;2022-08-20T04:50:00;98357.69;;;19.22;74.62
57847;BME280;43675;50.030;21.952;2022-08-20T04:52:27;98359.55;;;19.34;74.32
57847;BME280;43675;50.030;21.952;2022-08-20T04:54:53;98355.99;;;19.46;74.11
57847;BME280;43675;50.030;21.952;2022-08-20T04:57:19;98355.94;;;19.59;74.01
57847;BME280;43675;50.030;21.952;2022-08-20T04:59:45;98351.25;;;19.72;73.85
57847;BME280;43675;50.030;21.952;2022-08-20T05:02:10;98348.16;;;19.86;73.67
57847;BME280;43675;50.030;21.952;2022-08-20T05:04:36;98349.68;;;20.00;73.40
57847;BME280;43675;50.030;21.952;2022-08-20T05:07:02;98341.42;;;20.12;73.18
57847;BME280;43675;50.030;21.952;2022-08-20T05:09:27;98332.87;;;20.26;73.01
57847;BME280;43675;50.030;21.952;2022-08-20T05:11:53;98330.59;;;20.39;72.83
57847;BME280;43675;50.030;21.952;2022-08-20T05:14:18;98334.58;;;20.51;72.57
57847;BME280;43675;50.030;21.952;2022-08-20T05:16:50;98327.14;;;20.62;72.33
57847;BME280;43675;50.030;21.952;2022-08-20T05:19:16;98326.75;;;20.73;72.08
57847;BME280;43675;50.030;21.952;2022-08-20T05:21:48;98322.81;;;20.85;71.84
57847;BME280;43675;50.030;21.952;2022-08-20T05:24:21;98322.14;;;20.95;71.49
57847;BME280;43675;50.030;21.952;2022-08-20T05:26:53;98322.27;;;21.06;71.12
57847;BME280;43675;50.030;21.952;2022-08-20T05:29:19;98315.89;;;21.18;70.77
57847;BME280;43675;50.030;21.952;2022-08-20T05:31:44;98313.05;;;21.29;70.51
57847;BME280;43675;50.030;21.952;2022-08-20T05:34:11;98307.16;;;21.40;70.30
57847;BME280;43675;50.030;21.952;2022-08-20T05:36:38;98301.51;;;21.53;69.87
57847;BME280;43675;50.030;21.952;2022-08-20T05:39:04;98290.20;;;21.62;69.42
57847;BME280;43675;50.030;21.952;2022-08-20T05:41:30;98290.61;;;21.72;69.14
57847;BME280;43675;50.030;21.952;2022-08-20T05:43:59;98291.81;;;21.82;68.93
57847;BME280;43675;50.030;21.952;2022-08-20T05:46:25;98282.40;;;21.90;68.67
57847;BME280;43675;50.030;21.952;2022-08-20T05:48:50;98279.84;;;21.99;68.52
57847;BME280;43675;50.030;21.952;2022-08-20T05:51:16;98280.42;;;22.12;68.25
57847;BME280;43675;50.030;21.952;2022-08-20T05:53:42;98289.02;;;22.22;67.85
57847;BME280;43675;50.030;21.952;2022-08-20T05:56:07;98304.42;;;22.31;67.52
57847;BME280;43675;50.030;21.952;2022-08-20T05:58:33;98317.94;;;22.41;67.28
57847;BME280;43675;50.030;21.952;2022-08-20T06:00:59;98326.50;;;22.51;66.87
57847;BME280;43675;50.030;21.952;2022-08-20T06:03:24;98344.14;;;22.58;66.67
57847;BME280;43675;50.030;21.952;2022-08-20T06:05:50;98355.45;;;22.71;66.40
57847;BME280;43675;50.030;21.952;2022-08-20T06:08:16;98359.06;;;22.82;65.92
57847;BME280;43675;50.030;21.952;2022-08-20T06:10:42;98357.53;;;22.92;65.61
57847;BME280;43675;50.030;21.952;2022-08-20T06:13:09;98351.50;;;23.06;65.41
57847;BME280;43675;50.030;21.952;2022-08-20T06:15:35;98341.67;;;23.19;65.02
57847;BME280;43675;50.030;21.952;2022-08-20T06:18:09;98332.13;;;23.30;64.67
57847;BME280;43675;50.030;21.952;2022-08-20T06:20:35;98324.84;;;23.39;64.27
57847;BME280;43675;50.030;21.952;2022-08-20T06:23:01;98319.29;;;23.44;64.03
57847;BME280;43675;50.030;21.952;2022-08-20T06:25:26;98314.44;;;23.52;63.83
57847;BME280;43675;50.030;21.952;2022-08-20T06:27:58;98313.70;;;23.61;63.52
57847;BME280;43675;50.030;21.952;2022-08-20T06:30:24;98306.95;;;23.69;63.45
57847;BME280;43675;50.030;21.952;2022-08-20T06:32:49;98311.40;;;23.79;63.16
57847;BME280;43675;50.030;21.952;2022-08-20T06:35:15;98320.74;;;23.89;62.75
57847;BME280;43675;50.030;21.952;2022-08-20T06:37:41;98328.23;;;23.97;62.44
57847;BME280;43675;50.030;21.952;2022-08-20T06:40:17;98325.30;;;24.04;62.40
57847;BME280;43675;50.030;21.952;2022-08-20T06:42:43;98326.20;;;24.14;62.03
57847;BME280;43675;50.030;21.952;2022-08-20T06:45:10;98330.45;;;24.20;61.91
57847;BME280;43675;50.030;21.952;2022-08-20T06:47:42;98337.45;;;24.26;61.76
57847;BME280;43675;50.030;21.952;2022-08-20T06:50:13;98337.19;;;24.36;61.52
57847;BME280;43675;50.030;21.952;2022-08-20T06:52:40;98336.70;;;24.45;61.24
57847;BME280;43675;50.030;21.952;2022-08-20T06:55:08;98332.31;;;24.55;61.01
57847;BME280;43675;50.030;21.952;2022-08-20T06:57:37;98335.03;;;24.66;60.75
57847;BME280;43675;50.030;21.952;2022-08-20T07:00:17;98333.41;;;24.76;60.65
57847;BME280;43675;50.030;21.952;2022-08-20T07:02:40;98332.68;;;24.84;60.25
57847;BME280;43675;50.030;21.952;2022-08-20T07:05:06;98333.03;;;24.91;59.99
57847;BME280;43675;50.030;21.952;2022-08-20T07:07:32;98336.38;;;25.00;59.92
57847;BME280;43675;50.030;21.952;2022-08-20T07:10:04;98334.48;;;25.09;59.73
57847;BME280;43675;50.030;21.952;2022-08-20T07:12:30;98325.47;;;25.17;59.69
57847;BME280;43675;50.030;21.952;2022-08-20T07:14:55;98319.67;;;25.27;59.30
57847;BME280;43675;50.030;21.952;2022-08-20T07:17:21;98312.76;;;25.38;59.22
57847;BME280;43675;50.030;21.952;2022-08-20T07:19:47;98311.88;;;25.49;59.14
57847;BME280;43675;50.030;21.952;2022-08-20T07:22:12;98314.03;;;25.60;59.04
57847;BME280;43675;50.030;21.952;2022-08-20T07:24:38;98318.59;;;25.73;58.61
57847;BME280;43675;50.030;21.952;2022-08-20T07:27:03;98318.36;;;25.81;58.06
57847;BME280;43675;50.030;21.952;2022-08-20T07:29:35;98309.81;;;25.91;57.80
57847;BME280;43675;50.030;21.952;2022-08-20T07:32:01;98309.22;;;26.00;57.74
57847;BME280;43675;50.030;21.952;2022-08-20T07:34:27;98308.66;;;26.09;57.31
57847;BME280;43675;50.030;21.952;2022-08-20T07:36:52;98312.72;;;26.20;57.24
57847;BME280;43675;50.030;21.952;2022-08-20T07:39:25;98312.41;;;26.30;56.71
57847;BME280;43675;50.030;21.952;2022-08-20T07:41:50;98308.73;;;26.41;56.29
57847;BME280;43675;50.030;21.952;2022-08-20T07:44:16;98311.70;;;26.51;55.82
57847;BME280;43675;50.030;21.952;2022-08-20T07:46:41;98312.25;;;26.59;55.49
57847;BME280;43675;50.030;21.952;2022-08-20T07:49:07;98313.86;;;26.68;55.14
57847;BME280;43675;50.030;21.952;2022-08-20T07:51:33;98311.65;;;26.76;54.98
57847;BME280;43675;50.030;21.952;2022-08-20T07:53:58;98305.91;;;26.84;54.71
57847;BME280;43675;50.030;21.952;2022-08-20T07:56:24;98296.23;;;26.93;54.50
57847;BME280;43675;50.030;21.952;2022-08-20T07:58:58;98290.11;;;27.02;54.41
57847;BME280;43675;50.030;21.952;2022-08-20T08:01:29;98290.98;;;27.08;53.97
57847;BME280;43675;50.030;21.952;2022-08-20T08:03:56;98285.52;;;27.14;53.77
57847;BME280;43675;50.030;21.952;2022-08-20T08:06:22;98285.58;;;27.20;53.86
57847;BME280;43675;50.030;21.952;2022-08-20T08:08:49;98286.32;;;27.29;53.90
57847;BME280;43675;50.030;21.952;2022-08-20T08:11:15;98291.54;;;27.37;53.14
57847;BME280;43675;50.030;21.952;2022-08-20T08:13:41;98290.66;;;27.39;53.03
57847;BME280;43675;50.030;21.952;2022-08-20T08:16:08;98290.89;;;27.40;52.76
57847;BME280;43675;50.030;21.952;2022-08-20T08:18:38;98292.98;;;27.43;53.04
57847;BME280;43675;50.030;21.952;2022-08-20T08:21:05;98293.72;;;27.46;52.51
57847;BME280;43675;50.030;21.952;2022-08-20T08:23:31;98291.09;;;27.50;52.52
57847;BME280;43675;50.030;21.952;2022-08-20T08:25:57;98283.77;;;27.54;52.19
57847;BME280;43675;50.030;21.952;2022-08-20T08:28:23;98289.34;;;27.60;52.44
57847;BME280;43675;50.030;21.952;2022-08-20T08:30:55;98292.14;;;27.72;52.26
57847;BME280;43675;50.030;21.952;2022-08-20T08:33:30;98287.95;;;27.81;51.63
57847;BME280;43675;50.030;21.952;2022-08-20T08:38:25;98295.02;;;27.90;51.67
57847;BME280;43675;50.030;21.952;2022-08-20T08:41:06;98289.31;;;27.95;51.62
57847;BME280;43675;50.030;21.952;2022-08-20T08:43:29;98290.14;;;28.02;50.79
57847;BME280;43675;50.030;21.952;2022-08-20T08:45:59;98288.48;;;28.09;50.63
57847;BME280;43675;50.030;21.952;2022-08-20T08:48:32;98293.36;;;28.18;50.13
57847;BME280;43675;50.030;21.952;2022-08-20T08:50:54;98298.44;;;28.29;49.34
57847;BME280;43675;50.030;21.952;2022-08-20T08:53:25;98296.05;;;28.33;49.08
57847;BME280;43675;50.030;21.952;2022-08-20T08:55:52;98293.21;;;28.42;48.95
57847;BME280;43675;50.030;21.952;2022-08-20T08:58:18;98287.00;;;28.51;48.68
57847;BME280;43675;50.030;21.952;2022-08-20T09:00:51;98285.54;;;28.59;48.38
57847;BME280;43675;50.030;21.952;2022-08-20T09:03:26;98286.34;;;28.66;47.78
57847;BME280;43675;50.030;21.952;2022-08-20T09:05:54;98290.16;;;28.67;47.28
57847;BME280;43675;50.030;21.952;2022-08-20T09:08:24;98285.14;;;28.70;46.91
57847;BME280;43675;50.030;21.952;2022-08-20T09:10:49;98278.45;;;28.71;46.40
57847;BME280;43675;50.030;21.952;2022-08-20T09:13:15;98286.73;;;28.71;46.34
57847;BME280;43675;50.030;21.952;2022-08-20T09:15:41;98283.08;;;28.73;46.35
57847;BME280;43675;50.030;21.952;2022-08-20T09:18:07;98275.15;;;28.77;46.33
57847;BME280;43675;50.030;21.952;2022-08-20T09:20:33;98275.38;;;28.84;46.16
57847;BME280;43675;50.030;21.952;2022-08-20T09:22:58;98277.68;;;28.94;45.90
57847;BME280;43675;50.030;21.952;2022-08-20T09:25:24;98275.14;;;29.01;45.66
57847;BME280;43675;50.030;21.952;2022-08-20T09:27:57;98279.76;;;29.09;45.26
57847;BME280;43675;50.030;21.952;2022-08-20T09:30:22;98276.88;;;29.18;45.18
57847;BME280;43675;50.030;21.952;2022-08-20T09:32:58;98285.33;;;29.28;45.13
57847;BME280;43675;50.030;21.952;2022-08-20T09:35:24;98271.16;;;29.35;45.03
57847;BME280;43675;50.030;21.952;2022-08-20T09:37:50;98265.41;;;29.40;44.70
57847;BME280;43675;50.030;21.952;2022-08-20T09:40:15;98277.82;;;29.46;44.59
57847;BME280;43675;50.030;21.952;2022-08-20T09:42:41;98278.73;;;29.50;44.20
57847;BME280;43675;50.030;21.952;2022-08-20T09:45:08;98279.78;;;29.52;44.12
57847;BME280;43675;50.030;21.952;2022-08-20T09:47:33;98270.22;;;29.55;43.80
57847;BME280;43675;50.030;21.952;2022-08-20T09:49:59;98271.02;;;29.56;43.60
57847;BME280;43675;50.030;21.952;2022-08-20T09:52:30;98268.02;;;29.55;43.56
57847;BME280;43675;50.030;21.952;2022-08-20T09:54:59;98272.84;;;29.58;43.19
57847;BME280;43675;50.030;21.952;2022-08-20T09:57:25;98273.77;;;29.62;43.30
57847;BME280;43675;50.030;21.952;2022-08-20T09:59:54;98271.20;;;29.69;43.08
57847;BME280;43675;50.030;21.952;2022-08-20T10:02:27;98265.78;;;29.73;42.79
57847;BME280;43675;50.030;21.952;2022-08-20T10:04:52;98271.88;;;29.72;42.74
57847;BME280;43675;50.030;21.952;2022-08-20T10:07:18;98265.78;;;29.73;42.61
57847;BME280;43675;50.030;21.952;2022-08-20T10:09:44;98258.86;;;29.73;42.55
57847;BME280;43675;50.030;21.952;2022-08-20T10:12:09;98266.25;;;29.75;42.83
57847;BME280;43675;50.030;21.952;2022-08-20T10:14:35;98261.73;;;29.82;42.47
57847;BME280;43675;50.030;21.952;2022-08-20T10:17:02;98258.96;;;29.88;42.27
57847;BME280;43675;50.030;21.952;2022-08-20T10:19:29;98258.28;;;29.91;42.15
57847;BME280;43675;50.030;21.952;2022-08-20T10:21:55;98250.19;;;29.92;42.26
57847;BME280;43675;50.030;21.952;2022-08-20T10:24:21;98250.18;;;29.98;42.28
57847;BME280;43675;50.030;21.952;2022-08-20T10:26:47;98237.25;;;30.02;42.03
57847;BME280;43675;50.030;21.952;2022-08-20T10:29:14;98241.13;;;30.08;41.73
57847;BME280;43675;50.030;21.952;2022-08-20T10:31:40;98234.77;;;30.13;41.33
57847;BME280;43675;50.030;21.952;2022-08-20T10:34:12;98235.11;;;30.18;41.31
57847;BME280;43675;50.030;21.952;2022-08-20T10:36:41;98234.25;;;30.23;41.13
57847;BME280;43675;50.030;21.952;2022-08-20T10:39:07;98227.31;;;30.29;40.87
57847;BME280;43675;50.030;21.952;2022-08-20T10:41:32;98223.81;;;30.38;40.61
57847;BME280;43675;50.030;21.952;2022-08-20T10:43:58;98231.30;;;30.44;40.09
57847;BME280;43675;50.030;21.952;2022-08-20T10:46:23;98232.67;;;30.44;39.65
57847;BME280;43675;50.030;21.952;2022-08-20T10:48:49;98237.06;;;30.45;39.26
57847;BME280;43675;50.030;21.952;2022-08-20T10:51:15;98227.46;;;30.48;39.26
57847;BME280;43675;50.030;21.952;2022-08-20T10:53:40;98229.42;;;30.48;39.56
57847;BME280;43675;50.030;21.952;2022-08-20T10:56:06;98229.74;;;30.53;39.68
57847;BME280;43675;50.030;21.952;2022-08-20T10:58:38;98216.42;;;30.58;39.79
57847;BME280;43675;50.030;21.952;2022-08-20T11:01:04;98225.05;;;30.63;39.68
57847;BME280;43675;50.030;21.952;2022-08-20T11:03:36;98228.14;;;30.67;39.43
57847;BME280;43675;50.030;21.952;2022-08-20T11:06:02;98221.04;;;30.76;39.37
57847;BME280;43675;50.030;21.952;2022-08-20T11:08:28;98218.52;;;30.86;39.03
57847;BME280;43675;50.030;21.952;2022-08-20T11:10:53;98219.50;;;30.94;39.18
57847;BME280;43675;50.030;21.952;2022-08-20T11:13:19;98219.38;;;30.96;38.63
57847;BME280;43675;50.030;21.952;2022-08-20T11:15:44;98225.84;;;30.94;38.50
57847;BME280;43675;50.030;21.952;2022-08-20T11:18:11;98211.42;;;30.95;38.70
57847;BME280;43675;50.030;21.952;2022-08-20T11:20:39;98207.61;;;31.00;38.71
57847;BME280;43675;50.030;21.952;2022-08-20T11:23:04;98200.91;;;31.01;38.83
57847;BME280;43675;50.030;21.952;2022-08-20T11:25:36;98205.14;;;31.04;38.90
57847;BME280;43675;50.030;21.952;2022-08-20T11:28:03;98197.92;;;31.09;38.81
57847;BME280;43675;50.030;21.952;2022-08-20T11:30:32;98190.98;;;31.09;38.39
57847;BME280;43675;50.030;21.952;2022-08-20T11:32:59;98198.73;;;31.10;38.02
57847;BME280;43675;50.030;21.952;2022-08-20T11:35:33;98193.76;;;31.09;38.02
57847;BME280;43675;50.030;21.952;2022-08-20T11:38:00;98185.45;;;31.09;38.18
57847;BME280;43675;50.030;21.952;2022-08-20T11:40:27;98193.98;;;31.10;38.20
57847;BME280;43675;50.030;21.952;2022-08-20T11:42:53;98191.09;;;31.13;38.13
57847;BME280;43675;50.030;21.952;2022-08-20T11:45:19;98189.22;;;31.17;38.05
57847;BME280;43675;50.030;21.952;2022-08-20T11:47:51;98182.28;;;31.26;37.53
57847;BME280;43675;50.030;21.952;2022-08-20T11:50:19;98177.39;;;31.29;37.51
57847;BME280;43675;50.030;21.952;2022-08-20T11:52:45;98181.36;;;31.28;37.43
57847;BME280;43675;50.030;21.952;2022-08-20T11:55:12;98186.80;;;31.25;37.26
57847;BME280;43675;50.030;21.952;2022-08-20T11:57:45;98179.02;;;31.21;37.27
57847;BME280;43675;50.030;21.952;2022-08-20T12:00:19;98169.31;;;31.21;37.33
57847;BME280;43675;50.030;21.952;2022-08-20T12:02:43;98175.51;;;31.24;37.24
57847;BME280;43675;50.030;21.952;2022-08-20T12:05:10;98173.55;;;31.24;37.30
57847;BME280;43675;50.030;21.952;2022-08-20T12:07:36;98175.70;;;31.25;37.41
57847;BME280;43675;50.030;21.952;2022-08-20T12:10:04;98178.43;;;31.31;37.24
57847;BME280;43675;50.030;21.952;2022-08-20T12:12:29;98174.58;;;31.35;37.16
57847;BME280;43675;50.030;21.952;2022-08-20T12:14:55;98168.95;;;31.41;36.70
57847;BME280;43675;50.030;21.952;2022-08-20T12:17:26;98165.97;;;31.50;36.39
57847;BME280;43675;50.030;21.952;2022-08-20T12:19:53;98153.96;;;31.62;36.31
57847;BME280;43675;50.030;21.952;2022-08-20T12:22:20;98153.09;;;31.67;36.07
57847;BME280;43675;50.030;21.952;2022-08-20T12:24:46;98147.03;;;31.71;35.91
57847;BME280;43675;50.030;21.952;2022-08-20T12:27:26;98146.59;;;31.79;35.79
57847;BME280;43675;50.030;21.952;2022-08-20T12:29:52;98142.50;;;31.82;35.96
57847;BME280;43675;50.030;21.952;2022-08-20T12:32:19;98137.69;;;31.79;36.09
57847;BME280;43675;50.030;21.952;2022-08-20T12:34:46;98138.48;;;31.70;36.19
57847;BME280;43675;50.030;21.952;2022-08-20T12:37:14;98130.68;;;31.66;36.38
57847;BME280;43675;50.030;21.952;2022-08-20T12:39:42;98128.71;;;31.67;35.99
57847;BME280;43675;50.030;21.952;2022-08-20T12:42:08;98127.97;;;31.70;36.17
57847;BME280;43675;50.030;21.952;2022-08-20T12:44:34;98124.84;;;31.71;36.03
57847;BME280;43675;50.030;21.952;2022-08-20T12:47:15;98124.52;;;31.76;36.15
57847;BME280;43675;50.030;21.952;2022-08-20T12:49:44;98122.42;;;31.79;36.14
57847;BME280;43675;50.030;21.952;2022-08-20T12:52:18;98119.72;;;31.83;35.86
57847;BME280;43675;50.030;21.952;2022-08-20T12:54:50;98121.75;;;31.86;35.59
57847;BME280;43675;50.030;21.952;2022-08-20T12:57:28;98129.84;;;31.85;35.57
57847;BME280;43675;50.030;21.952;2022-08-20T12:59:57;98128.53;;;31.88;35.73